sensor_id;sensor_type;location;lat;lon;timestamp;P1;durP1;ratioP1;P2;durP2;ratioP2
15342;SDS011;7771;48.478;8.936;2024-03-02T00:00:39;26.00;;;13.07;;
15342;SDS011;7771;48.478;8.936;2024-03-02T00:03:07;22.70;;;12.37;;
15342;SDS011;7771;48.478;8.936;2024-03-02T00:05:34;20.67;;;11.53;;
15342;SDS011;7771;48.478;8.936;2024-03-02T00:08:02;18.03;;;10.37;;
15342;SDS011;7771;48.478;8.936;2024-03-02T00:10:36;15.80;;;10.17;;
15342;SDS011;7771;48.478;8.936;2024-03-02T00:13:02;19.20;;;11.17;;
15342;SDS011;7771;48.478;8.936;2024-03-02T00:18:13;26.00;;;15.63;;
15342;SDS011;7771;48.478;8.936;2024-03-02T00:20:39;29.03;;;18.53;;
15342;SDS011;7771;48.478;8.936;2024-03-02T00:23:06;26.23;;;15.90;;
15342;SDS011;7771;48.478;8.936;2024-03-02T00:25:41;32.67;;;17.00;;
15342;SDS011;7771;48.478;8.936;2024-03-02T00:30:57;13.60;;;9.40;;
15342;SDS011;7771;48.478;8.936;2024-03-02T00:33:27;14.13;;;9.83;;
15342;SDS011;7771;48.478;8.936;2024-03-02T00:35:54;12.40;;;9.50;;
15342;SDS011;7771;48.478;8.936;2024-03-02T00:38:21;16.47;;;11.03;;
15342;SDS011;7771;48.478;8.936;2024-03-02T00:40:50;16.90;;;11.10;;
15342;SDS011;7771;48.478;8.936;2024-03-02T00:46:02;12.30;;;9.07;;
15342;SDS011;7771;48.478;8.936;2024-03-02T00:48:30;14.60;;;9.47;;
15342;SDS011;7771;48.478;8.936;2024-03-02T00:50:57;11.47;;;8.77;;
15342;SDS011;7771;48.478;8.936;2024-03-02T00:53:24;13.13;;;9.10;;
15342;SDS011;7771;48.478;8.936;2024-03-02T00:55:52;13.63;;;8.97;;
15342;SDS011;7771;48.478;8.936;2024-03-02T00:58:19;14.13;;;8.63;;
15342;SDS011;7771;48.478;8.936;2024-03-02T01:00:46;11.73;;;8.90;;
15342;SDS011;7771;48.478;8.936;2024-03-02T01:03:13;12.93;;;8.60;;
15342;SDS011;7771;48.478;8.936;2024-03-02T01:05:41;14.33;;;7.67;;
15342;SDS011;7771;48.478;8.936;2024-03-02T01:08:08;12.27;;;8.00;;
15342;SDS011;7771;48.478;8.936;2024-03-02T01:10:34;12.17;;;8.17;;
15342;SDS011;7771;48.478;8.936;2024-03-02T01:13:02;26.33;;;13.40;;
15342;SDS011;7771;48.478;8.936;2024-03-02T01:15:29;20.37;;;11.27;;
15342;SDS011;7771;48.478;8.936;2024-03-02T01:17:56;12.20;;;7.53;;
15342;SDS011;7771;48.478;8.936;2024-03-02T01:20:24;16.23;;;8.33;;
15342;SDS011;7771;48.478;8.936;2024-03-02T01:22:51;13.10;;;8.37;;
15342;SDS011;7771;48.478;8.936;2024-03-02T01:25:19;18.00;;;9.13;;
15342;SDS011;7771;48.478;8.936;2024-03-02T01:27:46;20.63;;;10.00;;
15342;SDS011;7771;48.478;8.936;2024-03-02T01:30:13;15.83;;;8.73;;
15342;SDS011;7771;48.478;8.936;2024-03-02T01:32:41;9.90;;;7.67;;
15342;SDS011;7771;48.478;8.936;2024-03-02T01:35:08;15.47;;;8.50;;
15342;SDS011;7771;48.478;8.936;2024-03-02T01:37:36;11.50;;;8.57;;
15342;SDS011;7771;48.478;8.936;2024-03-02T01:40:02;11.43;;;8.57;;
15342;SDS011;7771;48.478;8.936;2024-03-02T01:42:30;11.60;;;8.93;;
15342;SDS011;7771;48.478;8.936;2024-03-02T01:44:58;12.13;;;9.20;;
15342;SDS011;7771;48.478;8.936;2024-03-02T01:47:26;14.63;;;9.03;;
15342;SDS011;7771;48.478;8.936;2024-03-02T01:49:54;10.93;;;8.00;;
15342;SDS011;7771;48.478;8.936;2024-03-02T01:52:21;13.53;;;8.73;;
15342;SDS011;7771;48.478;8.936;2024-03-02T01:54:48;12.80;;;9.43;;
15342;SDS011;7771;48.478;8.936;2024-03-02T01:57:15;15.93;;;10.87;;
15342;SDS011;7771;48.478;8.936;2024-03-02T01:59:42;18.70;;;11.07;;
15342;SDS011;7771;48.478;8.936;2024-03-02T02:02:09;17.37;;;11.27;;
15342;SDS011;7771;48.478;8.936;2024-03-02T02:04:37;16.23;;;10.77;;
15342;SDS011;7771;48.478;8.936;2024-03-02T02:07:03;22.13;;;11.17;;
15342;SDS011;7771;48.478;8.936;2024-03-02T02:09:30;19.17;;;10.23;;
15342;SDS011;7771;48.478;8.936;2024-03-02T02:11:57;17.07;;;10.43;;
15342;SDS011;7771;48.478;8.936;2024-03-02T02:14:24;17.10;;;9.30;;
15342;SDS011;7771;48.478;8.936;2024-03-02T02:16:51;12.17;;;8.70;;
15342;SDS011;7771;48.478;8.936;2024-03-02T02:19:17;15.97;;;10.17;;
15342;SDS011;7771;48.478;8.936;2024-03-02T02:21:45;14.53;;;9.17;;
15342;SDS011;7771;48.478;8.936;2024-03-02T02:24:11;17.60;;;10.23;;
15342;SDS011;7771;48.478;8.936;2024-03-02T02:26:39;14.23;;;9.50;;
15342;SDS011;7771;48.478;8.936;2024-03-02T02:29:07;13.73;;;9.43;;
15342;SDS011;7771;48.478;8.936;2024-03-02T02:31:40;15.17;;;8.77;;
15342;SDS011;7771;48.478;8.936;2024-03-02T02:34:06;14.67;;;9.23;;
15342;SDS011;7771;48.478;8.936;2024-03-02T02:36:33;37.00;;;23.40;;
15342;SDS011;7771;48.478;8.936;2024-03-02T02:39:00;17.53;;;12.73;;
15342;SDS011;7771;48.478;8.936;2024-03-02T02:41:26;14.43;;;8.73;;
15342;SDS011;7771;48.478;8.936;2024-03-02T02:43:54;11.30;;;8.40;;
15342;SDS011;7771;48.478;8.936;2024-03-02T02:46:21;11.00;;;8.27;;
15342;SDS011;7771;48.478;8.936;2024-03-02T02:48:49;13.93;;;10.40;;
15342;SDS011;7771;48.478;8.936;2024-03-02T02:51:16;18.00;;;12.50;;
15342;SDS011;7771;48.478;8.936;2024-03-02T02:53:44;14.73;;;10.23;;
15342;SDS011;7771;48.478;8.936;2024-03-02T02:56:10;19.53;;;9.63;;
15342;SDS011;7771;48.478;8.936;2024-03-02T02:58:39;10.50;;;7.30;;
15342;SDS011;7771;48.478;8.936;2024-03-02T03:01:06;8.93;;;6.30;;
15342;SDS011;7771;48.478;8.936;2024-03-02T03:03:33;11.27;;;7.50;;
15342;SDS011;7771;48.478;8.936;2024-03-02T03:06:00;15.10;;;7.80;;
15342;SDS011;7771;48.478;8.936;2024-03-02T03:08:27;10.90;;;7.83;;
15342;SDS011;7771;48.478;8.936;2024-03-02T03:10:54;11.37;;;7.23;;
15342;SDS011;7771;48.478;8.936;2024-03-02T03:13:22;12.97;;;8.60;;
15342;SDS011;7771;48.478;8.936;2024-03-02T03:15:49;12.07;;;7.87;;
15342;SDS011;7771;48.478;8.936;2024-03-02T03:18:17;9.90;;;6.73;;
15342;SDS011;7771;48.478;8.936;2024-03-02T03:20:44;9.70;;;6.97;;
15342;SDS011;7771;48.478;8.936;2024-03-02T03:23:12;9.63;;;6.63;;
15342;SDS011;7771;48.478;8.936;2024-03-02T03:25:39;10.70;;;7.03;;
15342;SDS011;7771;48.478;8.936;2024-03-02T03:28:07;10.97;;;7.43;;
15342;SDS011;7771;48.478;8.936;2024-03-02T03:30:38;11.13;;;7.70;;
15342;SDS011;7771;48.478;8.936;2024-03-02T03:33:05;11.57;;;7.90;;
15342;SDS011;7771;48.478;8.936;2024-03-02T03:35:32;12.00;;;7.30;;
15342;SDS011;7771;48.478;8.936;2024-03-02T03:37:59;12.43;;;7.93;;
15342;SDS011;7771;48.478;8.936;2024-03-02T03:40:27;12.37;;;7.47;;
15342;SDS011;7771;48.478;8.936;2024-03-02T03:42:53;12.40;;;7.07;;
15342;SDS011;7771;48.478;8.936;2024-03-02T03:45:21;9.70;;;7.80;;
15342;SDS011;7771;48.478;8.936;2024-03-02T03:47:49;12.07;;;7.57;;
15342;SDS011;7771;48.478;8.936;2024-03-02T03:50:15;11.33;;;7.40;;
15342;SDS011;7771;48.478;8.936;2024-03-02T03:52:43;12.60;;;8.27;;
15342;SDS011;7771;48.478;8.936;2024-03-02T03:55:10;13.63;;;8.07;;
15342;SDS011;7771;48.478;8.936;2024-03-02T03:57:37;12.57;;;8.70;;
15342;SDS011;7771;48.478;8.936;2024-03-02T04:00:04;16.50;;;8.63;;
15342;SDS011;7771;48.478;8.936;2024-03-02T04:02:31;11.83;;;8.57;;
15342;SDS011;7771;48.478;8.936;2024-03-02T04:04:58;10.67;;;7.80;;
15342;SDS011;7771;48.478;8.936;2024-03-02T04:07:24;10.23;;;7.20;;
15342;SDS011;7771;48.478;8.936;2024-03-02T04:09:51;11.63;;;7.77;;
15342;SDS011;7771;48.478;8.936;2024-03-02T04:12:18;10.20;;;7.43;;
15342;SDS011;7771;48.478;8.936;2024-03-02T04:14:45;11.73;;;7.90;;
15342;SDS011;7771;48.478;8.936;2024-03-02T04:17:12;11.47;;;7.60;;
15342;SDS011;7771;48.478;8.936;2024-03-02T04:19:40;11.10;;;7.57;;
15342;SDS011;7771;48.478;8.936;2024-03-02T04:22:08;10.83;;;8.07;;
15342;SDS011;7771;48.478;8.936;2024-03-02T04:24:34;13.43;;;8.27;;
15342;SDS011;7771;48.478;8.936;2024-03-02T04:27:02;11.47;;;8.20;;
15342;SDS011;7771;48.478;8.936;2024-03-02T04:29:29;12.67;;;8.20;;
15342;SDS011;7771;48.478;8.936;2024-03-02T04:31:55;11.83;;;8.23;;
15342;SDS011;7771;48.478;8.936;2024-03-02T04:34:23;12.00;;;7.97;;
15342;SDS011;7771;48.478;8.936;2024-03-02T04:36:50;14.23;;;8.83;;
15342;SDS011;7771;48.478;8.936;2024-03-02T04:39:18;17.07;;;9.80;;
15342;SDS011;7771;48.478;8.936;2024-03-02T04:41:45;17.77;;;10.47;;
15342;SDS011;7771;48.478;8.936;2024-03-02T04:44:13;12.87;;;7.90;;
15342;SDS011;7771;48.478;8.936;2024-03-02T04:46:40;11.63;;;8.57;;
15342;SDS011;7771;48.478;8.936;2024-03-02T04:49:07;13.73;;;8.97;;
15342;SDS011;7771;48.478;8.936;2024-03-02T04:51:33;14.23;;;9.20;;
15342;SDS011;7771;48.478;8.936;2024-03-02T04:54:01;15.70;;;10.33;;
15342;SDS011;7771;48.478;8.936;2024-03-02T04:56:29;13.23;;;9.53;;
15342;SDS011;7771;48.478;8.936;2024-03-02T04:59:13;14.23;;;8.90;;
15342;SDS011;7771;48.478;8.936;2024-03-02T05:01:41;13.53;;;9.50;;
15342;SDS011;7771;48.478;8.936;2024-03-02T05:04:07;14.93;;;9.60;;
15342;SDS011;7771;48.478;8.936;2024-03-02T05:06:34;14.73;;;9.10;;
15342;SDS011;7771;48.478;8.936;2024-03-02T05:09:01;12.10;;;9.20;;
15342;SDS011;7771;48.478;8.936;2024-03-02T05:11:29;14.53;;;9.23;;
15342;SDS011;7771;48.478;8.936;2024-03-02T05:14:01;15.10;;;8.87;;
15342;SDS011;7771;48.478;8.936;2024-03-02T05:16:28;13.93;;;8.70;;
15342;SDS011;7771;48.478;8.936;2024-03-02T05:18:56;12.17;;;7.43;;
15342;SDS011;7771;48.478;8.936;2024-03-02T05:21:23;14.20;;;7.77;;
15342;SDS011;7771;48.478;8.936;2024-03-02T05:23:52;11.53;;;7.93;;
15342;SDS011;7771;48.478;8.936;2024-03-02T05:26:18;13.10;;;7.70;;
15342;SDS011;7771;48.478;8.936;2024-03-02T05:28:44;14.57;;;8.37;;
15342;SDS011;7771;48.478;8.936;2024-03-02T05:31:16;14.13;;;8.97;;
15342;SDS011;7771;48.478;8.936;2024-03-02T05:33:44;11.83;;;7.97;;
15342;SDS011;7771;48.478;8.936;2024-03-02T05:36:10;14.20;;;8.40;;
15342;SDS011;7771;48.478;8.936;2024-03-02T05:38:38;11.27;;;6.93;;
15342;SDS011;7771;48.478;8.936;2024-03-02T05:41:06;8.80;;;6.60;;
15342;SDS011;7771;48.478;8.936;2024-03-02T05:43:33;9.70;;;7.20;;
15342;SDS011;7771;48.478;8.936;2024-03-02T05:46:00;8.97;;;5.93;;
15342;SDS011;7771;48.478;8.936;2024-03-02T05:48:26;13.60;;;8.40;;
15342;SDS011;7771;48.478;8.936;2024-03-02T05:50:54;13.53;;;8.63;;
15342;SDS011;7771;48.478;8.936;2024-03-02T05:53:21;13.13;;;8.30;;
15342;SDS011;7771;48.478;8.936;2024-03-02T05:55:48;13.33;;;8.63;;
15342;SDS011;7771;48.478;8.936;2024-03-02T05:58:15;13.87;;;8.53;;
15342;SDS011;7771;48.478;8.936;2024-03-02T06:00:57;12.47;;;7.93;;
15342;SDS011;7771;48.478;8.936;2024-03-02T06:03:24;14.13;;;8.73;;
15342;SDS011;7771;48.478;8.936;2024-03-02T06:05:51;14.03;;;8.80;;
15342;SDS011;7771;48.478;8.936;2024-03-02T06:08:19;15.20;;;8.43;;
15342;SDS011;7771;48.478;8.936;2024-03-02T06:10:45;14.77;;;8.90;;
15342;SDS011;7771;48.478;8.936;2024-03-02T06:13:13;14.37;;;9.33;;
15342;SDS011;7771;48.478;8.936;2024-03-02T06:15:39;14.17;;;10.50;;
15342;SDS011;7771;48.478;8.936;2024-03-02T06:18:07;13.87;;;9.20;;
15342;SDS011;7771;48.478;8.936;2024-03-02T06:20:35;13.37;;;8.63;;
15342;SDS011;7771;48.478;8.936;2024-03-02T06:23:01;12.93;;;7.73;;
15342;SDS011;7771;48.478;8.936;2024-03-02T06:25:28;13.33;;;8.40;;
15342;SDS011;7771;48.478;8.936;2024-03-02T06:27:55;12.83;;;8.37;;
15342;SDS011;7771;48.478;8.936;2024-03-02T06:30:21;14.17;;;9.80;;
15342;SDS011;7771;48.478;8.936;2024-03-02T06:32:48;13.10;;;8.77;;
15342;SDS011;7771;48.478;8.936;2024-03-02T06:35:16;14.90;;;9.17;;
15342;SDS011;7771;48.478;8.936;2024-03-02T06:37:43;17.40;;;9.10;;
15342;SDS011;7771;48.478;8.936;2024-03-02T06:40:11;14.63;;;8.87;;
15342;SDS011;7771;48.478;8.936;2024-03-02T06:42:38;12.53;;;8.63;;
15342;SDS011;7771;48.478;8.936;2024-03-02T06:45:06;15.90;;;9.63;;
15342;SDS011;7771;48.478;8.936;2024-03-02T06:47:32;12.93;;;8.83;;
15342;SDS011;7771;48.478;8.936;2024-03-02T06:49:59;14.23;;;9.47;;
15342;SDS011;7771;48.478;8.936;2024-03-02T06:52:26;15.03;;;9.80;;
15342;SDS011;7771;48.478;8.936;2024-03-02T06:54:53;12.60;;;8.77;;
15342;SDS011;7771;48.478;8.936;2024-03-02T06:57:20;15.27;;;10.27;;
15342;SDS011;7771;48.478;8.936;2024-03-02T06:59:46;16.70;;;10.43;;
15342;SDS011;7771;48.478;8.936;2024-03-02T07:02:15;17.67;;;10.30;;
15342;SDS011;7771;48.478;8.936;2024-03-02T07:04:42;15.30;;;9.27;;
15342;SDS011;7771;48.478;8.936;2024-03-02T07:07:08;15.70;;;10.43;;
15342;SDS011;7771;48.478;8.936;2024-03-02T07:09:36;12.97;;;9.80;;
15342;SDS011;7771;48.478;8.936;2024-03-02T07:12:02;13.53;;;9.83;;
15342;SDS011;7771;48.478;8.936;2024-03-02T07:14:29;15.30;;;10.10;;
15342;SDS011;7771;48.478;8.936;2024-03-02T07:17:02;17.10;;;11.23;;
15342;SDS011;7771;48.478;8.936;2024-03-02T07:19:29;16.33;;;11.17;;
15342;SDS011;7771;48.478;8.936;2024-03-02T07:21:57;15.73;;;11.20;;
15342;SDS011;7771;48.478;8.936;2024-03-02T07:24:24;16.87;;;12.13;;
15342;SDS011;7771;48.478;8.936;2024-03-02T07:26:51;19.53;;;12.40;;
15342;SDS011;7771;48.478;8.936;2024-03-02T07:29:19;17.57;;;12.00;;
15342;SDS011;7771;48.478;8.936;2024-03-02T07:31:46;18.67;;;12.73;;
15342;SDS011;7771;48.478;8.936;2024-03-02T07:34:13;18.43;;;12.00;;
15342;SDS011;7771;48.478;8.936;2024-03-02T07:36:40;17.00;;;11.93;;
15342;SDS011;7771;48.478;8.936;2024-03-02T07:39:07;16.50;;;11.13;;
15342;SDS011;7771;48.478;8.936;2024-03-02T07:41:35;20.07;;;12.83;;
15342;SDS011;7771;48.478;8.936;2024-03-02T07:44:03;19.00;;;12.97;;
15342;SDS011;7771;48.478;8.936;2024-03-02T07:46:29;16.00;;;11.97;;
15342;SDS011;7771;48.478;8.936;2024-03-02T07:48:56;18.10;;;12.17;;
15342;SDS011;7771;48.478;8.936;2024-03-02T07:51:23;21.13;;;13.63;;
15342;SDS011;7771;48.478;8.936;2024-03-02T07:53:51;19.13;;;13.47;;
15342;SDS011;7771;48.478;8.936;2024-03-02T07:56:19;32.90;;;18.80;;
15342;SDS011;7771;48.478;8.936;2024-03-02T07:58:46;61.10;;;35.90;;
15342;SDS011;7771;48.478;8.936;2024-03-02T08:01:12;33.13;;;23.33;;
15342;SDS011;7771;48.478;8.936;2024-03-02T08:03:40;26.23;;;17.17;;
15342;SDS011;7771;48.478;8.936;2024-03-02T08:06:06;27.50;;;16.33;;
15342;SDS011;7771;48.478;8.936;2024-03-02T08:08:34;25.57;;;15.67;;
15342;SDS011;7771;48.478;8.936;2024-03-02T08:11:00;25.43;;;16.07;;
15342;SDS011;7771;48.478;8.936;2024-03-02T08:13:27;25.23;;;15.33;;
15342;SDS011;7771;48.478;8.936;2024-03-02T08:15:56;23.03;;;15.03;;
15342;SDS011;7771;48.478;8.936;2024-03-02T08:18:22;22.10;;;13.60;;
15342;SDS011;7771;48.478;8.936;2024-03-02T08:20:49;21.47;;;14.00;;
15342;SDS011;7771;48.478;8.936;2024-03-02T08:23:17;24.23;;;14.73;;
15342;SDS011;7771;48.478;8.936;2024-03-02T08:25:42;28.67;;;17.03;;
15342;SDS011;7771;48.478;8.936;2024-03-02T08:28:10;25.07;;;14.57;;
15342;SDS011;7771;48.478;8.936;2024-03-02T08:30:38;13.67;;;9.70;;
15342;SDS011;7771;48.478;8.936;2024-03-02T08:33:04;17.47;;;11.97;;
15342;SDS011;7771;48.478;8.936;2024-03-02T08:35:31;17.10;;;11.07;;
15342;SDS011;7771;48.478;8.936;2024-03-02T08:37:58;14.10;;;10.53;;
15342;SDS011;7771;48.478;8.936;2024-03-02T08:40:26;15.47;;;9.60;;
15342;SDS011;7771;48.478;8.936;2024-03-02T08:42:53;12.37;;;8.90;;
15342;SDS011;7771;48.478;8.936;2024-03-02T08:45:20;15.33;;;9.80;;
15342;SDS011;7771;48.478;8.936;2024-03-02T08:47:47;12.40;;;9.47;;
15342;SDS011;7771;48.478;8.936;2024-03-02T08:50:14;13.93;;;10.23;;
15342;SDS011;7771;48.478;8.936;2024-03-02T08:52:41;17.23;;;11.93;;
15342;SDS011;7771;48.478;8.936;2024-03-02T08:55:08;20.93;;;12.70;;
15342;SDS011;7771;48.478;8.936;2024-03-02T08:57:35;20.97;;;14.80;;
15342;SDS011;7771;48.478;8.936;2024-03-02T09:00:02;19.57;;;13.77;;
15342;SDS011;7771;48.478;8.936;2024-03-02T09:02:29;20.20;;;13.73;;
15342;SDS011;7771;48.478;8.936;2024-03-02T09:04:56;16.27;;;11.93;;
15342;SDS011;7771;48.478;8.936;2024-03-02T09:07:23;16.80;;;11.33;;
15342;SDS011;7771;48.478;8.936;2024-03-02T09:09:49;13.37;;;10.33;;
15342;SDS011;7771;48.478;8.936;2024-03-02T09:12:17;14.33;;;10.57;;
15342;SDS011;7771;48.478;8.936;2024-03-02T09:14:43;13.33;;;10.10;;
15342;SDS011;7771;48.478;8.936;2024-03-02T09:17:11;14.63;;;9.60;;
15342;SDS011;7771;48.478;8.936;2024-03-02T09:19:39;11.77;;;9.10;;
15342;SDS011;7771;48.478;8.936;2024-03-02T09:22:06;13.07;;;9.10;;
15342;SDS011;7771;48.478;8.936;2024-03-02T09:24:32;11.30;;;9.20;;
15342;SDS011;7771;48.478;8.936;2024-03-02T09:26:59;12.40;;;9.40;;
15342;SDS011;7771;48.478;8.936;2024-03-02T09:29:27;10.57;;;8.43;;
15342;SDS011;7771;48.478;8.936;2024-03-02T09:31:55;11.77;;;8.87;;
15342;SDS011;7771;48.478;8.936;2024-03-02T09:34:24;11.37;;;8.30;;
15342;SDS011;7771;48.478;8.936;2024-03-02T09:36:51;10.57;;;8.73;;
15342;SDS011;7771;48.478;8.936;2024-03-02T09:39:18;11.33;;;8.80;;
15342;SDS011;7771;48.478;8.936;2024-03-02T09:41:46;11.80;;;8.33;;
15342;SDS011;7771;48.478;8.936;2024-03-02T09:44:14;11.97;;;8.67;;
15342;SDS011;7771;48.478;8.936;2024-03-02T09:46:40;13.47;;;9.03;;
15342;SDS011;7771;48.478;8.936;2024-03-02T09:49:08;9.23;;;7.90;;
15342;SDS011;7771;48.478;8.936;2024-03-02T09:51:35;9.47;;;8.03;;
15342;SDS011;7771;48.478;8.936;2024-03-02T09:54:02;13.70;;;9.70;;
15342;SDS011;7771;48.478;8.936;2024-03-02T09:56:29;9.00;;;6.57;;
15342;SDS011;7771;48.478;8.936;2024-03-02T09:58:56;6.07;;;5.37;;
15342;SDS011;7771;48.478;8.936;2024-03-02T10:01:23;6.33;;;4.80;;
15342;SDS011;7771;48.478;8.936;2024-03-02T10:03:50;7.53;;;4.67;;
15342;SDS011;7771;48.478;8.936;2024-03-02T10:06:19;7.60;;;5.67;;
15342;SDS011;7771;48.478;8.936;2024-03-02T10:08:45;6.77;;;5.17;;
15342;SDS011;7771;48.478;8.936;2024-03-02T10:11:24;6.00;;;5.07;;
15342;SDS011;7771;48.478;8.936;2024-03-02T10:13:41;6.97;;;5.33;;
15342;SDS011;7771;48.478;8.936;2024-03-02T10:16:12;5.93;;;5.13;;
15342;SDS011;7771;48.478;8.936;2024-03-02T10:18:39;7.23;;;6.13;;
15342;SDS011;7771;48.478;8.936;2024-03-02T10:21:13;10.20;;;6.23;;
15342;SDS011;7771;48.478;8.936;2024-03-02T10:23:39;8.87;;;6.40;;
15342;SDS011;7771;48.478;8.936;2024-03-02T10:26:17;11.00;;;7.67;;
15342;SDS011;7771;48.478;8.936;2024-03-02T10:28:46;12.30;;;9.10;;
15342;SDS011;7771;48.478;8.936;2024-03-02T10:31:14;10.83;;;8.43;;
15342;SDS011;7771;48.478;8.936;2024-03-02T10:33:41;11.67;;;9.50;;
15342;SDS011;7771;48.478;8.936;2024-03-02T10:36:08;9.80;;;8.07;;
15342;SDS011;7771;48.478;8.936;2024-03-02T10:38:35;7.30;;;5.63;;
15342;SDS011;7771;48.478;8.936;2024-03-02T10:41:03;9.33;;;6.90;;
15342;SDS011;7771;48.478;8.936;2024-03-02T10:43:30;8.97;;;6.97;;
15342;SDS011;7771;48.478;8.936;2024-03-02T10:45:57;10.80;;;7.77;;
15342;SDS011;7771;48.478;8.936;2024-03-02T10:48:25;7.90;;;6.65;;
15342;SDS011;7771;48.478;8.936;2024-03-02T10:50:51;7.97;;;6.70;;
15342;SDS011;7771;48.478;8.936;2024-03-02T10:53:20;7.28;;;6.12;;
15342;SDS011;7771;48.478;8.936;2024-03-02T10:55:46;6.53;;;5.40;;
15342;SDS011;7771;48.478;8.936;2024-03-02T10:58:14;6.70;;;5.73;;
15342;SDS011;7771;48.478;8.936;2024-03-02T11:00:41;8.38;;;5.72;;
15342;SDS011;7771;48.478;8.936;2024-03-02T11:03:08;6.85;;;6.00;;
15342;SDS011;7771;48.478;8.936;2024-03-02T11:05:36;6.18;;;5.55;;
15342;SDS011;7771;48.478;8.936;2024-03-02T11:08:06;6.37;;;5.75;;
15342;SDS011;7771;48.478;8.936;2024-03-02T11:10:33;5.75;;;5.05;;
15342;SDS011;7771;48.478;8.936;2024-03-02T11:13:00;5.40;;;4.33;;
15342;SDS011;7771;48.478;8.936;2024-03-02T11:15:27;6.87;;;4.50;;
15342;SDS011;7771;48.478;8.936;2024-03-02T11:17:54;6.47;;;4.50;;
15342;SDS011;7771;48.478;8.936;2024-03-02T11:20:23;6.03;;;4.57;;
15342;SDS011;7771;48.478;8.936;2024-03-02T11:22:49;5.70;;;4.62;;
15342;SDS011;7771;48.478;8.936;2024-03-02T11:25:24;6.90;;;5.25;;
15342;SDS011;7771;48.478;8.936;2024-03-02T11:30:50;6.43;;;4.90;;
15342;SDS011;7771;48.478;8.936;2024-03-02T11:33:22;5.20;;;4.40;;
15342;SDS011;7771;48.478;8.936;2024-03-02T11:35:45;6.60;;;4.32;;
15342;SDS011;7771;48.478;8.936;2024-03-02T11:38:13;5.65;;;4.43;;
15342;SDS011;7771;48.478;8.936;2024-03-02T11:40:39;7.90;;;4.37;;
15342;SDS011;7771;48.478;8.936;2024-03-02T11:43:07;6.07;;;4.85;;
15342;SDS011;7771;48.478;8.936;2024-03-02T11:45:35;8.65;;;4.37;;
15342;SDS011;7771;48.478;8.936;2024-03-02T11:48:01;5.22;;;4.57;;
15342;SDS011;7771;48.478;8.936;2024-03-02T11:50:33;5.32;;;4.03;;
15342;SDS011;7771;48.478;8.936;2024-03-02T11:53:01;5.32;;;4.10;;
15342;SDS011;7771;48.478;8.936;2024-03-02T11:55:27;7.62;;;5.05;;
15342;SDS011;7771;48.478;8.936;2024-03-02T11:57:56;4.85;;;3.97;;
15342;SDS011;7771;48.478;8.936;2024-03-02T12:00:24;3.90;;;3.35;;
15342;SDS011;7771;48.478;8.936;2024-03-02T12:02:59;3.03;;;2.35;;
15342;SDS011;7771;48.478;8.936;2024-03-02T12:05:28;3.70;;;2.70;;
15342;SDS011;7771;48.478;8.936;2024-03-02T12:07:59;2.83;;;2.40;;
15342;SDS011;7771;48.478;8.936;2024-03-02T12:10:26;2.83;;;2.42;;
15342;SDS011;7771;48.478;8.936;2024-03-02T12:15:30;2.72;;;2.45;;
15342;SDS011;7771;48.478;8.936;2024-03-02T12:17:56;2.47;;;2.03;;
15342;SDS011;7771;48.478;8.936;2024-03-02T12:20:24;3.12;;;2.58;;
15342;SDS011;7771;48.478;8.936;2024-03-02T12:22:52;4.10;;;2.08;;
15342;SDS011;7771;48.478;8.936;2024-03-02T12:25:19;4.35;;;3.10;;
15342;SDS011;7771;48.478;8.936;2024-03-02T12:27:51;3.20;;;1.85;;
15342;SDS011;7771;48.478;8.936;2024-03-02T12:30:18;3.37;;;2.10;;
15342;SDS011;7771;48.478;8.936;2024-03-02T12:32:45;3.00;;;2.08;;
15342;SDS011;7771;48.478;8.936;2024-03-02T12:35:12;4.07;;;2.40;;
15342;SDS011;7771;48.478;8.936;2024-03-02T12:37:44;1.60;;;1.50;;
15342;SDS011;7771;48.478;8.936;2024-03-02T12:40:11;4.20;;;1.73;;
15342;SDS011;7771;48.478;8.936;2024-03-02T12:42:37;2.67;;;1.67;;
15342;SDS011;7771;48.478;8.936;2024-03-02T12:45:05;2.17;;;1.50;;
15342;SDS011;7771;48.478;8.936;2024-03-02T12:47:33;2.12;;;1.70;;
15342;SDS011;7771;48.478;8.936;2024-03-02T12:49:59;2.85;;;2.12;;
15342;SDS011;7771;48.478;8.936;2024-03-02T12:52:26;5.95;;;3.92;;
15342;SDS011;7771;48.478;8.936;2024-03-02T12:54:53;2.60;;;2.35;;
15342;SDS011;7771;48.478;8.936;2024-03-02T12:57:19;3.10;;;2.30;;
15342;SDS011;7771;48.478;8.936;2024-03-02T12:59:47;1.85;;;1.60;;
15342;SDS011;7771;48.478;8.936;2024-03-02T13:02:17;2.55;;;1.80;;
15342;SDS011;7771;48.478;8.936;2024-03-02T13:04:42;1.83;;;1.70;;
15342;SDS011;7771;48.478;8.936;2024-03-02T13:07:10;2.40;;;1.60;;
15342;SDS011;7771;48.478;8.936;2024-03-02T13:09:37;2.60;;;1.83;;
15342;SDS011;7771;48.478;8.936;2024-03-02T13:12:04;2.05;;;1.67;;
15342;SDS011;7771;48.478;8.936;2024-03-02T13:14:32;2.67;;;1.85;;
15342;SDS011;7771;48.478;8.936;2024-03-02T13:16:59;2.17;;;1.98;;
15342;SDS011;7771;48.478;8.936;2024-03-02T13:19:27;2.65;;;2.20;;
15342;SDS011;7771;48.478;8.936;2024-03-02T13:21:53;5.12;;;2.72;;
15342;SDS011;7771;48.478;8.936;2024-03-02T13:24:20;3.80;;;2.78;;
15342;SDS011;7771;48.478;8.936;2024-03-02T13:26:48;3.08;;;2.60;;
15342;SDS011;7771;48.478;8.936;2024-03-02T13:29:15;3.00;;;2.00;;
15342;SDS011;7771;48.478;8.936;2024-03-02T13:31:43;4.35;;;2.92;;
15342;SDS011;7771;48.478;8.936;2024-03-02T13:34:10;2.65;;;1.90;;
15342;SDS011;7771;48.478;8.936;2024-03-02T13:36:39;3.95;;;2.90;;
15342;SDS011;7771;48.478;8.936;2024-03-02T13:39:05;3.47;;;1.92;;
15342;SDS011;7771;48.478;8.936;2024-03-02T13:41:32;2.00;;;1.80;;
15342;SDS011;7771;48.478;8.936;2024-03-02T13:44:00;3.05;;;1.42;;
15342;SDS011;7771;48.478;8.936;2024-03-02T13:46:28;2.83;;;1.58;;
15342;SDS011;7771;48.478;8.936;2024-03-02T13:48:55;2.35;;;1.95;;
15342;SDS011;7771;48.478;8.936;2024-03-02T13:51:22;3.17;;;1.98;;
15342;SDS011;7771;48.478;8.936;2024-03-02T13:53:48;1.20;;;1.08;;
15342;SDS011;7771;48.478;8.936;2024-03-02T13:56:15;1.50;;;1.30;;
15342;SDS011;7771;48.478;8.936;2024-03-02T13:58:42;6.68;;;2.72;;
15342;SDS011;7771;48.478;8.936;2024-03-02T14:01:11;3.10;;;1.87;;
15342;SDS011;7771;48.478;8.936;2024-03-02T14:03:39;2.35;;;1.30;;
15342;SDS011;7771;48.478;8.936;2024-03-02T14:06:05;1.95;;;1.45;;
15342;SDS011;7771;48.478;8.936;2024-03-02T14:08:32;1.58;;;1.45;;
15342;SDS011;7771;48.478;8.936;2024-03-02T14:10:59;1.60;;;1.40;;
15342;SDS011;7771;48.478;8.936;2024-03-02T14:13:27;1.58;;;1.02;;
15342;SDS011;7771;48.478;8.936;2024-03-02T14:15:54;1.25;;;1.15;;
15342;SDS011;7771;48.478;8.936;2024-03-02T14:18:21;2.28;;;1.58;;
15342;SDS011;7771;48.478;8.936;2024-03-02T14:20:49;2.67;;;1.60;;
15342;SDS011;7771;48.478;8.936;2024-03-02T14:23:17;3.92;;;1.42;;
15342;SDS011;7771;48.478;8.936;2024-03-02T14:25:45;3.58;;;2.10;;
15342;SDS011;7771;48.478;8.936;2024-03-02T14:28:13;3.50;;;2.33;;
15342;SDS011;7771;48.478;8.936;2024-03-02T14:30:40;1.37;;;1.10;;
15342;SDS011;7771;48.478;8.936;2024-03-02T14:33:07;1.27;;;1.10;;
15342;SDS011;7771;48.478;8.936;2024-03-02T14:35:36;3.25;;;1.27;;
15342;SDS011;7771;48.478;8.936;2024-03-02T14:38:03;2.97;;;1.35;;
15342;SDS011;7771;48.478;8.936;2024-03-02T14:40:30;3.33;;;1.10;;
15342;SDS011;7771;48.478;8.936;2024-03-02T14:42:57;1.58;;;1.37;;
15342;SDS011;7771;48.478;8.936;2024-03-02T14:45:25;2.72;;;1.50;;
15342;SDS011;7771;48.478;8.936;2024-03-02T14:47:52;1.12;;;1.00;;
15342;SDS011;7771;48.478;8.936;2024-03-02T14:50:19;1.45;;;1.12;;
15342;SDS011;7771;48.478;8.936;2024-03-02T14:52:46;1.83;;;1.25;;
15342;SDS011;7771;48.478;8.936;2024-03-02T14:55:13;1.20;;;1.00;;
15342;SDS011;7771;48.478;8.936;2024-03-02T14:57:40;0.80;;;0.80;;
15342;SDS011;7771;48.478;8.936;2024-03-02T15:00:09;1.10;;;0.93;;
15342;SDS011;7771;48.478;8.936;2024-03-02T15:02:37;2.97;;;1.20;;
15342;SDS011;7771;48.478;8.936;2024-03-02T15:05:03;3.50;;;1.45;;